Time;durP1;ratioP1;P1;durP2;ratioP2;P2;SDS_P1;SDS_P2;PMS_P1;PMS_P2;Temp;Humidity;BMP_temperature;BMP_pressure;BME280_temperature;BME280_humidity;BME280_pressure;Samples;Min_cycle;Max_cycle;Signal;HPM_P1;HPM_P2
2022/12/23 00:01:11;;;;;;;7.72;2.30;;;;;;;;;;4944559;28;20020;-91
2022/12/23 00:03:39;;;;;;;8.55;2.60;;;;;;;;;;4937704;28;20027;-91
2022/12/23 00:06:21;;;;;;;7.35;2.35;;;;;;;;;;4935059;29;20126;-91
2022/12/23 00:08:56;;;;;;;8.32;2.13;;;;;;;;;;4923141;29;20459;-91
2022/12/23 00:11:22;;;;;;;9.95;2.75;;;;;;;;;;4913689;29;20031;-92
2022/12/23 00:16:34;;;;;;;9.02;3.13;;;;;;;;;;4926393;29;20042;-92
2022/12/23 00:18:59;;;;;;;8.82;2.92;;;;;;;;;;4932616;29;20062;-92
2022/12/23 00:21:25;;;;;;;8.80;2.80;;;;;;;;;;4913582;29;20067;-92
2022/12/23 00:23:54;;;;;;;7.97;2.70;;;;;;;;;;4924479;29;20061;-91
2022/12/23 00:26:20;;;;;;;9.70;2.97;;;;;;;;;;4919622;29;20114;-91
2022/12/23 00:28:46;;;;;;;7.57;2.50;;;;;;;;;;4935217;29;20030;-91
2022/12/23 00:31:12;;;;;;;11.50;2.53;;;;;;;;;;4914637;29;20436;-92
2022/12/23 00:33:41;;;;;;;8.82;2.30;;;;;;;;;;4911925;29;20027;-92
2022/12/23 00:36:16;;;;;;;8.13;2.00;;;;;;;;;;4913330;29;20031;-92
2022/12/23 00:44:16;;;;;;;7.50;2.20;;;;;;;;;;4936221;29;20111;-91
2022/12/23 00:46:41;;;;;;;9.20;2.45;;;;;;;;;;4914839;29;20031;-91
2022/12/23 00:51:51;;;;;;;13.38;2.83;;;;;;;;;;4929393;29;20038;-93
2022/12/23 00:54:18;;;;;;;10.07;2.58;;;;;;;;;;4921013;29;20028;-92
2022/12/23 00:56:44;;;;;;;8.85;2.15;;;;;;;;;;4911594;29;20027;-92
2022/12/23 00:59:10;;;;;;;9.90;2.63;;;;;;;;;;4905525;29;20627;-93
2022/12/23 01:07:13;;;;;;;10.02;2.55;;;;;;;;;;4921535;29;20046;-93
2022/12/23 01:09:39;;;;;;;9.95;2.38;;;;;;;;;;4940041;28;20047;-92
2022/12/23 01:12:05;;;;;;;9.27;2.42;;;;;;;;;;4948185;28;20031;-92
2022/12/23 01:14:34;;;;;;;11.98;2.55;;;;;;;;;;4931346;28;20403;-92
2022/12/23 01:16:59;;;;;;;9.68;2.50;;;;;;;;;;4927609;28;20038;-92
2022/12/23 01:19:25;;;;;;;10.38;2.33;;;;;;;;;;4956435;28;20042;-90
2022/12/23 01:21:52;;;;;;;9.93;2.60;;;;;;;;;;4950061;29;20027;-92
2022/12/23 01:24:26;;;;;;;8.68;2.47;;;;;;;;;;4949006;28;20386;-91
2022/12/23 01:26:52;;;;;;;10.00;2.60;;;;;;;;;;4952260;28;20218;-91
2022/12/23 01:29:18;;;;;;;8.13;2.35;;;;;;;;;;4932991;29;20027;-92
2022/12/23 01:31:43;;;;;;;11.32;2.55;;;;;;;;;;4950030;28;20506;-91
2022/12/23 01:34:09;;;;;;;10.75;2.85;;;;;;;;;;4947397;28;20099;-91
2022/12/23 01:36:36;;;;;;;8.20;2.47;;;;;;;;;;4933288;29;20019;-92
2022/12/23 01:39:03;;;;;;;9.38;2.50;;;;;;;;;;4947674;29;20089;-92
2022/12/23 01:44:37;;;;;;;12.02;3.10;;;;;;;;;;4949577;28;20106;-92
2022/12/23 01:47:05;;;;;;;12.93;2.50;;;;;;;;;;4949235;28;20024;-92
2022/12/23 01:49:34;;;;;;;11.05;2.53;;;;;;;;;;4936459;29;20031;-92
2022/12/23 01:52:08;;;;;;;9.55;2.60;;;;;;;;;;4932557;28;20031;-92
2022/12/23 01:54:40;;;;;;;9.15;2.70;;;;;;;;;;4939464;28;20429;-92
2022/12/23 01:57:08;;;;;;;8.07;2.10;;;;;;;;;;4949406;28;20027;-92
2022/12/23 02:05:03;;;;;;;7.90;1.90;;;;;;;;;;4949713;29;20054;-91
2022/12/23 02:10:13;;;;;;;6.97;1.70;;;;;;;;;;4949286;28;20105;-91
2022/12/23 02:12:38;;;;;;;8.30;1.67;;;;;;;;;;4924473;29;20034;-91
2022/12/23 02:18:15;;;;;;;9.60;2.00;;;;;;;;;;4954238;28;20025;-91
2022/12/23 02:21:00;;;;;;;7.63;1.85;;;;;;;;;;4934510;29;20043;-90
2022/12/23 02:23:44;;;;;;;12.00;1.90;;;;;;;;;;4932795;29;20054;-90
2022/12/23 02:26:28;;;;;;;8.18;1.67;;;;;;;;;;4933169;29;20055;-90
2022/12/23 02:28:56;;;;;;;9.85;2.10;;;;;;;;;;4932469;28;20033;-91
2022/12/23 02:31:22;;;;;;;9.82;2.00;;;;;;;;;;4932302;29;20038;-92
2022/12/23 02:33:59;;;;;;;9.55;2.05;;;;;;;;;;4936008;29;20023;-91
2022/12/23 02:36:25;;;;;;;9.55;2.10;;;;;;;;;;4949595;29;20058;-91
2022/12/23 02:39:01;;;;;;;9.50;1.67;;;;;;;;;;4921050;28;20031;-89
2022/12/23 02:41:36;;;;;;;9.48;2.22;;;;;;;;;;4946823;28;20027;-91
2022/12/23 02:44:11;;;;;;;7.30;2.10;;;;;;;;;;4934619;29;20036;-87
2022/12/23 02:46:48;;;;;;;8.57;2.10;;;;;;;;;;4954991;28;20502;-90
2022/12/23 02:49:22;;;;;;;8.18;1.70;;;;;;;;;;4957489;28;20179;-91
2022/12/23 02:51:49;;;;;;;7.63;1.90;;;;;;;;;;4954642;28;21164;-91
2022/12/23 02:54:16;;;;;;;7.95;2.00;;;;;;;;;;4954224;28;20755;-91
2022/12/23 02:56:44;;;;;;;8.65;1.85;;;;;;;;;;4935516;29;20043;-91
2022/12/23 02:59:13;;;;;;;7.20;1.85;;;;;;;;;;4931243;28;20027;-91
2022/12/23 03:07:03;;;;;;;10.35;2.10;;;;;;;;;;4346655;26;20053;-91
2022/12/23 03:09:47;;;;;;;8.02;2.05;;;;;;;;;;4993034;28;20026;-90
2022/12/23 03:12:28;;;;;;;8.18;1.75;;;;;;;;;;4990535;28;20032;-90
2022/12/23 03:15:01;;;;;;;10.32;1.98;;;;;;;;;;4993834;28;20491;-90
2022/12/23 03:17:36;;;;;;;8.25;2.05;;;;;;;;;;5010038;28;20030;-91
2022/12/23 03:20:13;;;;;;;7.53;1.92;;;;;;;;;;4991248;28;20017;-91
2022/12/23 03:22:59;;;;;;;14.18;2.03;;;;;;;;;;5006463;28;20017;-90
2022/12/23 03:25:35;;;;;;;12.93;2.00;;;;;;;;;;4963252;28;20030;-91
2022/12/23 03:28:10;;;;;;;7.45;2.15;;;;;;;;;;5011115;28;20030;-91
2022/12/23 03:30:37;;;;;;;9.10;2.00;;;;;;;;;;4989256;28;20105;-90
2022/12/23 03:33:29;;;;;;;8.60;2.22;;;;;;;;;;4990781;28;20477;-90
2022/12/23 03:35:57;;;;;;;7.38;1.92;;;;;;;;;;4993801;28;20700;-89
2022/12/23 03:38:24;;;;;;;9.73;2.20;;;;;;;;;;5008046;28;20751;-90
2022/12/23 03:40:54;;;;;;;9.63;1.98;;;;;;;;;;4988482;28;20385;-90
2022/12/23 03:43:22;;;;;;;9.02;2.08;;;;;;;;;;5006988;28;20037;-90
2022/12/23 03:45:50;;;;;;;8.77;2.60;;;;;;;;;;5007415;28;20034;-89
2022/12/23 03:48:21;;;;;;;8.52;2.60;;;;;;;;;;5004759;28;20064;-90
2022/12/23 03:50:55;;;;;;;9.57;2.42;;;;;;;;;;4988611;28;20124;-90
2022/12/23 03:53:33;;;;;;;10.30;2.70;;;;;;;;;;5010652;28;20034;-91
2022/12/23 03:56:02;;;;;;;9.65;2.78;;;;;;;;;;4991221;28;20108;-90
2022/12/23 03:58:27;;;;;;;11.73;2.80;;;;;;;;;;5013556;28;20026;-90
2022/12/23 04:01:03;;;;;;;10.43;2.58;;;;;;;;;;5026234;28;20136;-90
2022/12/23 04:03:39;;;;;;;8.77;2.78;;;;;;;;;;4991547;28;20029;-90
2022/12/23 04:06:09;;;;;;;11.48;2.63;;;;;;;;;;4991156;28;20046;-90
2022/12/23 04:08:36;;;;;;;13.05;3.10;;;;;;;;;;5008168;28;20076;-90
2022/12/23 04:11:02;;;;;;;15.68;3.47;;;;;;;;;;5009093;28;20037;-90
2022/12/23 04:13:29;;;;;;;13.93;5.25;;;;;;;;;;5013280;28;20026;-91
2022/12/23 04:15:56;;;;;;;13.32;4.80;;;;;;;;;;5004466;28;20108;-90
2022/12/23 04:18:22;;;;;;;18.02;4.55;;;;;;;;;;5011221;28;20020;-90
2022/12/23 04:20:47;;;;;;;25.17;5.13;;;;;;;;;;5018617;28;20017;-90
2022/12/23 04:23:12;;;;;;;20.67;5.03;;;;;;;;;;4999918;28;20038;-90
2022/12/23 04:25:38;;;;;;;37.45;5.78;;;;;;;;;;5028503;28;20033;-90
2022/12/23 04:28:03;;;;;;;26.05;5.38;;;;;;;;;;5008140;28;20029;-90
2022/12/23 04:30:29;;;;;;;20.02;5.07;;;;;;;;;;5011740;28;20101;-90
2022/12/23 04:32:54;;;;;;;15.80;3.70;;;;;;;;;;5013078;28;20022;-90
2022/12/23 04:35:20;;;;;;;18.95;4.40;;;;;;;;;;4989711;28;20033;-90
2022/12/23 04:37:45;;;;;;;29.83;4.90;;;;;;;;;;4998519;28;20026;-90
2022/12/23 04:40:10;;;;;;;66.95;6.63;;;;;;;;;;4989407;28;20468;-90
2022/12/23 04:42:38;;;;;;;54.42;5.70;;;;;;;;;;5006225;28;20030;-90
2022/12/23 04:45:07;;;;;;;44.10;4.43;;;;;;;;;;5008416;28;20034;-91
2022/12/23 04:47:32;;;;;;;29.85;3.92;;;;;;;;;;5005948;28;20040;-91
2022/12/23 04:49:57;;;;;;;32.05;5.05;;;;;;;;;;5007380;28;20808;-90
2022/12/23 04:52:24;;;;;;;54.75;6.30;;;;;;;;;;4989590;28;20095;-90
2022/12/23 04:54:49;;;;;;;152.88;10.85;;;;;;;;;;5004306;28;20026;-90
2022/12/23 04:57:14;;;;;;;224.15;13.90;;;;;;;;;;4994316;28;20521;-90
2022/12/23 04:59:40;;;;;;;188.68;12.45;;;;;;;;;;5012346;28;20029;-91
2022/12/23 05:02:05;;;;;;;232.05;15.18;;;;;;;;;;5005834;28;20026;-90
2022/12/23 05:04:31;;;;;;;200.80;13.65;;;;;;;;;;4983778;28;20497;-90
2022/12/23 05:06:56;;;;;;;158.18;11.77;;;;;;;;;;5007307;28;20049;-90
2022/12/23 05:09:24;;;;;;;124.95;10.48;;;;;;;;;;5023381;28;20595;-90
2022/12/23 05:11:59;;;;;;;167.25;11.98;;;;;;;;;;5016646;28;20516;-90
2022/12/23 05:14:24;;;;;;;148.10;11.55;;;;;;;;;;4990133;28;20041;-89
2022/12/23 05:16:50;;;;;;;170.35;12.18;;;;;;;;;;5010845;28;20473;-90
2022/12/23 05:19:15;;;;;;;264.70;17.02;;;;;;;;;;4989671;28;20030;-89
2022/12/23 05:21:41;;;;;;;275.88;19.85;;;;;;;;;;4986689;28;20122;-90
2022/12/23 05:24:06;;;;;;;270.42;18.90;;;;;;;;;;5006482;28;20029;-89
2022/12/23 05:26:34;;;;;;;236.85;16.48;;;;;;;;;;4989203;28;20048;-89
2022/12/23 05:29:00;;;;;;;251.15;15.75;;;;;;;;;;4983641;28;20026;-89
2022/12/23 05:31:25;;;;;;;323.20;23.55;;;;;;;;;;5026314;28;20590;-89
2022/12/23 05:33:50;;;;;;;263.80;20.02;;;;;;;;;;5009269;28;20045;-89
2022/12/23 05:36:16;;;;;;;339.38;23.27;;;;;;;;;;4991249;28;20033;-88
2022/12/23 05:38:41;;;;;;;362.40;26.10;;;;;;;;;;5006102;28;20021;-88
2022/12/23 05:41:06;;;;;;;349.40;24.00;;;;;;;;;;4987517;28;20022;-91
2022/12/23 05:43:32;;;;;;;345.88;24.08;;;;;;;;;;4995149;28;20549;-89
2022/12/23 05:45:57;;;;;;;310.35;19.38;;;;;;;;;;5017538;28;20792;-89
2022/12/23 05:48:22;;;;;;;274.20;19.05;;;;;;;;;;5005452;28;20026;-89
2022/12/23 05:50:49;;;;;;;343.58;23.80;;;;;;;;;;5006528;28;20033;-88
2022/12/23 05:53:15;;;;;;;410.00;29.38;;;;;;;;;;4987432;28;20033;-89
2022/12/23 05:55:40;;;;;;;357.77;24.27;;;;;;;;;;4988093;28;20067;-89
2022/12/23 05:58:05;;;;;;;404.88;28.02;;;;;;;;;;4986404;28;20025;-89
2022/12/23 06:00:31;;;;;;;446.17;29.95;;;;;;;;;;4987235;28;20076;-89
2022/12/23 06:02:56;;;;;;;357.63;25.88;;;;;;;;;;4990404;28;20649;-89
2022/12/23 06:05:21;;;;;;;427.85;28.67;;;;;;;;;;4990110;28;20049;-89
2022/12/23 06:07:47;;;;;;;415.50;28.98;;;;;;;;;;4986739;28;20022;-89
2022/12/23 06:10:13;;;;;;;410.70;30.70;;;;;;;;;;5004581;28;20083;-89
2022/12/23 06:12:41;;;;;;;418.67;28.25;;;;;;;;;;4986281;28;20026;-89
2022/12/23 06:15:07;;;;;;;427.30;28.80;;;;;;;;;;4991215;28;20119;-89
2022/12/23 06:17:32;;;;;;;415.33;28.50;;;;;;;;;;4989342;28;20080;-89
2022/12/23 06:19:57;;;;;;;262.83;17.50;;;;;;;;;;5008511;28;20087;-90
2022/12/23 06:22:24;;;;;;;408.38;24.40;;;;;;;;;;5005576;28;20060;-89
2022/12/23 06:24:49;;;;;;;385.70;25.83;;;;;;;;;;4987977;28;20052;-89
2022/12/23 06:27:18;;;;;;;403.10;27.23;;;;;;;;;;4988989;28;20037;-89
2022/12/23 06:29:43;;;;;;;415.02;28.02;;;;;;;;;;4988155;28;20447;-90
2022/12/23 06:32:09;;;;;;;448.08;33.55;;;;;;;;;;5001525;28;20033;-90
2022/12/23 06:34:34;;;;;;;523.92;39.42;;;;;;;;;;4998387;28;20401;-90
2022/12/23 06:37:00;;;;;;;500.75;41.97;;;;;;;;;;5004153;28;20037;-90
2022/12/23 06:39:26;;;;;;;523.58;41.38;;;;;;;;;;4993108;28;20038;-90
2022/12/23 06:41:52;;;;;;;520.30;38.03;;;;;;;;;;4987959;28;20083;-91
2022/12/23 06:44:17;;;;;;;518.20;43.30;;;;;;;;;;4989335;28;20117;-90
2022/12/23 06:46:46;;;;;;;544.05;40.95;;;;;;;;;;4988310;28;20045;-89
2022/12/23 06:49:11;;;;;;;565.65;45.47;;;;;;;;;;4989058;28;20064;-90
2022/12/23 06:51:36;;;;;;;550.38;43.95;;;;;;;;;;5006821;28;20030;-90
2022/12/23 06:54:02;;;;;;;630.75;50.17;;;;;;;;;;4988506;28;20069;-90
2022/12/23 06:56:34;;;;;;;576.17;49.50;;;;;;;;;;4989044;28;20022;-89
2022/12/23 06:59:00;;;;;;;650.37;48.93;;;;;;;;;;4989055;28;20120;-91
2022/12/23 07:01:25;;;;;;;588.25;46.38;;;;;;;;;;4982749;28;20018;-91
2022/12/23 07:03:50;;;;;;;589.17;47.35;;;;;;;;;;4986075;28;20488;-91
2022/12/23 07:06:16;;;;;;;615.35;55.03;;;;;;;;;;4985391;28;20103;-92
2022/12/23 07:08:44;;;;;;;564.92;45.90;;;;;;;;;;5001476;28;20846;-91
2022/12/23 07:11:10;;;;;;;559.58;42.75;;;;;;;;;;4988387;28;20055;-91
2022/12/23 07:13:35;;;;;;;560.08;48.45;;;;;;;;;;4984598;28;20128;-90
2022/12/23 07:16:04;;;;;;;593.67;45.92;;;;;;;;;;5003997;28;20030;-89
2022/12/23 07:18:33;;;;;;;558.00;45.03;;;;;;;;;;5001462;28;20029;-89
2022/12/23 07:20:59;;;;;;;682.08;60.35;;;;;;;;;;4978009;28;20030;-90
2022/12/23 07:23:25;;;;;;;617.35;52.47;;;;;;;;;;4984236;28;20038;-90
2022/12/23 07:25:50;;;;;;;606.55;51.30;;;;;;;;;;5011337;28;20539;-89
2022/12/23 07:28:16;;;;;;;626.05;48.15;;;;;;;;;;4993101;28;20061;-89
2022/12/23 07:30:41;;;;;;;554.40;46.22;;;;;;;;;;5018985;28;20037;-90
2022/12/23 07:33:09;;;;;;;624.60;52.70;;;;;;;;;;5016989;28;20033;-90
2022/12/23 07:35:35;;;;;;;760.53;65.88;;;;;;;;;;4999658;28;20037;-90
2022/12/23 07:38:00;;;;;;;750.53;64.78;;;;;;;;;;4995009;28;20030;-90
2022/12/23 07:40:26;;;;;;;737.53;59.47;;;;;;;;;;5007473;28;20087;-90
2022/12/23 07:42:55;;;;;;;767.38;63.63;;;;;;;;;;4988859;28;20060;-90
2022/12/23 07:45:21;;;;;;;765.10;61.70;;;;;;;;;;5015829;28;20053;-91
2022/12/23 07:47:46;;;;;;;694.35;53.72;;;;;;;;;;5005803;28;20515;-90
2022/12/23 07:50:12;;;;;;;755.70;63.53;;;;;;;;;;5011216;28;20034;-90
2022/12/23 07:52:37;;;;;;;756.50;63.63;;;;;;;;;;5006170;28;20088;-90
2022/12/23 07:55:04;;;;;;;795.80;70.30;;;;;;;;;;5003805;28;20026;-90
2022/12/23 07:57:36;;;;;;;774.65;61.85;;;;;;;;;;5003837;28;20022;-90
2022/12/23 08:00:20;;;;;;;774.50;62.90;;;;;;;;;;4986497;28;20022;-89
2022/12/23 08:02:45;;;;;;;;;;;;;;;;;;4999370;28;20108;-90
2022/12/23 08:05:17;;;;;;;793.15;78.18;;;;;;;;;;4987437;28;20008;-91
2022/12/23 08:07:44;;;;;;;797.15;74.95;;;;;;;;;;4990586;28;20026;-93
2022/12/23 08:10:09;;;;;;;732.13;69.93;;;;;;;;;;4994018;28;20040;-91
2022/12/23 08:12:35;;;;;;;779.42;65.47;;;;;;;;;;4980306;28;20022;-92
2022/12/23 08:15:00;;;;;;;688.38;70.22;;;;;;;;;;5001332;28;20021;-91
2022/12/23 08:17:26;;;;;;;683.00;56.03;;;;;;;;;;5015644;28;20111;-93
2022/12/23 08:19:52;;;;;;;700.00;66.28;;;;;;;;;;5005319;28;20076;-93
2022/12/23 08:22:17;;;;;;;602.78;46.40;;;;;;;;;;4994030;28;20051;-93
2022/12/23 08:24:42;;;;;;;637.70;50.45;;;;;;;;;;5003922;28;20156;-93
2022/12/23 08:27:08;;;;;;;640.38;57.45;;;;;;;;;;5010711;28;20025;-93
2022/12/23 08:29:33;;;;;;;606.25;52.38;;;;;;;;;;4994004;28;20033;-93
2022/12/23 08:31:58;;;;;;;599.92;50.22;;;;;;;;;;4992135;28;20430;-93
2022/12/23 08:34:24;;;;;;;744.42;58.83;;;;;;;;;;4985458;28;20030;-92
2022/12/23 08:36:49;;;;;;;658.72;54.95;;;;;;;;;;5019439;28;20022;-94
2022/12/23 08:39:15;;;;;;;597.60;52.95;;;;;;;;;;5021110;28;20105;-93
2022/12/23 08:41:43;;;;;;;645.33;56.67;;;;;;;;;;5005006;28;20042;-92
2022/12/23 08:44:09;;;;;;;657.65;52.38;;;;;;;;;;5006028;28;20393;-91
2022/12/23 08:46:34;;;;;;;694.70;52.50;;;;;;;;;;4986034;28;20026;-91
2022/12/23 08:49:03;;;;;;;602.75;49.47;;;;;;;;;;4980016;28;20084;-91
2022/12/23 08:51:31;;;;;;;620.92;51.65;;;;;;;;;;4988156;28;20044;-91
2022/12/23 08:53:58;;;;;;;579.35;47.97;;;;;;;;;;4986606;28;20568;-91
2022/12/23 08:56:25;;;;;;;591.55;52.00;;;;;;;;;;4978574;28;20028;-91
2022/12/23 08:58:52;;;;;;;455.05;37.65;;;;;;;;;;5004011;28;20037;-92
2022/12/23 09:01:35;;;;;;;607.53;50.50;;;;;;;;;;4998302;28;20024;-91
2022/12/23 09:04:01;;;;;;;;;;;;;;;;;;4980451;28;20508;-91
2022/12/23 09:06:27;;;;;;;566.85;52.30;;;;;;;;;;5003464;28;19925;-91
2022/12/23 09:08:54;;;;;;;552.80;44.83;;;;;;;;;;4991698;28;20026;-91
2022/12/23 09:11:29;;;;;;;598.17;45.70;;;;;;;;;;4986621;28;20029;-91
2022/12/23 09:13:58;;;;;;;567.63;46.88;;;;;;;;;;4989399;28;20683;-91
2022/12/23 09:16:27;;;;;;;566.08;46.58;;;;;;;;;;4988699;28;20029;-90
2022/12/23 09:18:54;;;;;;;523.10;44.63;;;;;;;;;;4989733;28;20026;-91
2022/12/23 09:21:23;;;;;;;607.85;49.90;;;;;;;;;;5010961;28;20022;-91
2022/12/23 09:23:49;;;;;;;705.20;56.38;;;;;;;;;;4994086;28;20485;-90
2022/12/23 09:26:19;;;;;;;683.05;53.05;;;;;;;;;;4984357;28;20038;-91
2022/12/23 09:28:44;;;;;;;581.88;43.03;;;;;;;;;;4985433;28;20046;-91
2022/12/23 09:31:10;;;;;;;609.45;47.90;;;;;;;;;;4989883;28;20061;-92
2022/12/23 09:33:36;;;;;;;568.08;46.85;;;;;;;;;;4987472;28;20046;-92
2022/12/23 09:36:02;;;;;;;670.65;52.72;;;;;;;;;;5001292;28;20299;-91
2022/12/23 09:38:28;;;;;;;612.65;50.25;;;;;;;;;;4982138;28;20028;-92
2022/12/23 09:41:26;;;;;;;638.17;51.08;;;;;;;;;;4986840;28;20032;-91
2022/12/23 09:44:06;;;;;;;556.78;55.83;;;;;;;;;;4922581;29;20050;-92
2022/12/23 09:46:37;;;;;;;501.63;39.13;;;;;;;;;;4912747;29;20039;-90
2022/12/23 09:49:10;;;;;;;507.13;43.40;;;;;;;;;;4927563;29;20059;-91
2022/12/23 09:51:35;;;;;;;549.63;49.40;;;;;;;;;;4910039;29;20095;-92
2022/12/23 09:54:16;;;;;;;554.65;46.30;;;;;;;;;;4912567;29;20036;-91
2022/12/23 09:56:55;;;;;;;579.13;47.00;;;;;;;;;;4925896;29;20167;-90
2022/12/23 09:59:29;;;;;;;512.88;42.10;;;;;;;;;;4925652;29;20036;-92
2022/12/23 10:02:03;;;;;;;574.63;47.65;;;;;;;;;;4909703;29;20645;-90
2022/12/23 10:04:55;;;;;;;590.78;48.17;;;;;;;;;;4926990;29;20039;-90
2022/12/23 10:07:24;;;;;;;504.42;38.33;;;;;;;;;;4912450;29;20093;-92
2022/12/23 10:09:51;;;;;;;496.58;39.58;;;;;;;;;;4912667;29;20039;-92
2022/12/23 10:12:28;;;;;;;471.42;34.85;;;;;;;;;;4924497;29;20835;-92
2022/12/23 10:14:56;;;;;;;501.15;41.38;;;;;;;;;;4923829;29;20040;-93
2022/12/23 10:17:41;;;;;;;459.58;33.35;;;;;;;;;;4926899;29;20033;-92
2022/12/23 10:20:12;;;;;;;486.02;39.65;;;;;;;;;;4983071;28;20091;-94
2022/12/23 10:22:40;;;;;;;454.27;34.30;;;;;;;;;;5001128;28;20030;-93
2022/12/23 10:25:37;;;;;;;431.30;30.00;;;;;;;;;;4983511;28;20021;-93
2022/12/23 10:28:04;;;;;;;514.92;44.70;;;;;;;;;;5005488;28;20022;-93
2022/12/23 10:30:32;;;;;;;533.55;39.45;;;;;;;;;;4988213;28;20042;-93
2022/12/23 10:32:58;;;;;;;584.17;49.65;;;;;;;;;;4986352;28;20021;-92
2022/12/23 10:35:36;;;;;;;492.33;37.00;;;;;;;;;;4995822;28;20044;-93
2022/12/23 10:38:10;;;;;;;511.92;40.03;;;;;;;;;;4983339;28;20022;-93
2022/12/23 10:40:42;;;;;;;428.15;29.02;;;;;;;;;;4983433;28;20054;-92
2022/12/23 10:43:07;;;;;;;420.10;31.08;;;;;;;;;;5005681;28;20030;-93
2022/12/23 10:45:59;;;;;;;434.67;35.72;;;;;;;;;;4987394;28;20104;-92
2022/12/23 10:48:28;;;;;;;431.35;35.47;;;;;;;;;;5008789;28;20067;-92
2022/12/23 10:51:08;;;;;;;453.55;34.92;;;;;;;;;;4987002;28;20109;-92
2022/12/23 10:53:38;;;;;;;298.65;21.73;;;;;;;;;;5007362;28;20052;-92
2022/12/23 10:56:07;;;;;;;357.70;25.67;;;;;;;;;;4976851;28;20035;-93
2022/12/23 10:58:36;;;;;;;700.90;49.00;;;;;;;;;;5006842;28;20473;-89
2022/12/23 11:01:08;;;;;;;269.40;18.10;;;;;;;;;;4997104;28;20032;-94
2022/12/23 11:03:36;;;;;;;270.30;16.30;;;;;;;;;;5009665;28;20089;-92
2022/12/23 11:06:06;;;;;;;402.35;23.98;;;;;;;;;;5002108;28;20058;-91
2022/12/23 11:08:34;;;;;;;542.53;46.72;;;;;;;;;;5007140;28;20021;-92
2022/12/23 11:11:09;;;;;;;531.55;39.17;;;;;;;;;;5006451;28;20038;-93
2022/12/23 11:13:39;;;;;;;317.58;18.13;;;;;;;;;;4987412;28;20042;-92
2022/12/23 11:16:18;;;;;;;200.25;14.00;;;;;;;;;;5002325;28;20061;-93
2022/12/23 11:18:55;;;;;;;609.30;50.63;;;;;;;;;;4994189;28;20029;-92
2022/12/23 11:21:44;;;;;;;235.32;18.13;;;;;;;;;;4990358;28;20037;-92
2022/12/23 11:24:17;;;;;;;134.07;11.52;;;;;;;;;;4969107;28;20052;-93
2022/12/23 11:26:47;;;;;;;145.25;10.82;;;;;;;;;;4988494;28;20022;-93
2022/12/23 11:29:22;;;;;;;599.13;53.90;;;;;;;;;;4988121;28;20022;-92
2022/12/23 11:31:48;;;;;;;231.10;19.95;;;;;;;;;;4983718;28;20026;-93
2022/12/23 11:34:18;;;;;;;83.03;8.15;;;;;;;;;;4982306;28;20045;-92
2022/12/23 11:36:51;;;;;;;216.23;14.45;;;;;;;;;;4988602;28;20026;-91
2022/12/23 11:39:17;;;;;;;;;;;;;;;;;;5001696;28;20105;-92
2022/12/23 11:41:44;;;;;;;277.55;19.67;;;;;;;;;;5002995;28;20408;-92
2022/12/23 11:44:19;;;;;;;157.20;11.57;;;;;;;;;;4996856;28;20033;-94
2022/12/23 11:46:48;;;;;;;175.30;12.32;;;;;;;;;;5003393;28;20021;-93
2022/12/23 11:49:43;;;;;;;320.08;24.65;;;;;;;;;;4996318;28;20053;-94
2022/12/23 11:52:13;;;;;;;231.82;16.98;;;;;;;;;;4987832;28;20056;-93
2022/12/23 11:54:51;;;;;;;135.20;9.70;;;;;;;;;;5007261;28;20038;-93
2022/12/23 11:57:20;;;;;;;222.20;16.23;;;;;;;;;;4987244;28;20086;-93
2022/12/23 11:59:48;;;;;;;1483.68;183.77;;;;;;;;;;4993070;28;20037;-94
2022/12/23 12:02:19;;;;;;;144.07;11.50;;;;;;;;;;4981932;28;20061;-92
2022/12/23 12:04:59;;;;;;;125.88;11.48;;;;;;;;;;4981186;28;20189;-92
2022/12/23 12:07:34;;;;;;;30.52;4.00;;;;;;;;;;4997738;28;20059;-93
2022/12/23 12:10:15;;;;;;;60.40;5.38;;;;;;;;;;4995566;28;20022;-93
2022/12/23 12:12:40;;;;;;;216.00;13.13;;;;;;;;;;4979611;28;20739;-94
2022/12/23 12:15:08;;;;;;;68.38;7.60;;;;;;;;;;4991871;28;20061;-93
2022/12/23 12:17:37;;;;;;;132.32;9.95;;;;;;;;;;4987806;28;20034;-95
2022/12/23 12:20:06;;;;;;;30.77;4.03;;;;;;;;;;4991660;28;20018;-94
2022/12/23 12:23:01;;;;;;;20.80;3.63;;;;;;;;;;5008609;28;20046;-95
2022/12/23 12:25:56;;;;;;;169.77;15.07;;;;;;;;;;4970706;28;20026;-93
2022/12/23 12:28:38;;;;;;;1001.38;120.80;;;;;;;;;;4969346;28;20026;-96
2022/12/23 12:31:22;;;;;;;11.80;2.97;;;;;;;;;;4991994;28;20077;-96
2022/12/23 12:34:01;;;;;;;32.92;3.70;;;;;;;;;;4993444;28;20108;-95
2022/12/23 12:36:35;;;;;;;39.30;4.45;;;;;;;;;;4985066;28;20034;-95
2022/12/23 12:39:14;;;;;;;13.68;3.58;;;;;;;;;;4990961;28;20053;-94
2022/12/23 12:41:42;;;;;;;9.43;2.90;;;;;;;;;;4986409;28;20042;-94
2022/12/23 12:44:27;;;;;;;18.67;3.22;;;;;;;;;;4990068;28;20076;-94
2022/12/23 12:47:00;;;;;;;14.10;3.10;;;;;;;;;;5009081;28;20028;-94
2022/12/23 12:49:28;;;;;;;;;;;;;;;;;;4989895;28;20447;-96
2022/12/23 12:52:05;;;;;;;8.52;2.80;;;;;;;;;;4986637;28;19910;-95
2022/12/23 12:54:41;;;;;;;9.40;3.00;;;;;;;;;;5002745;28;20038;-94
2022/12/23 12:57:14;;;;;;;19.77;4.15;;;;;;;;;;4998578;28;20126;-95
2022/12/23 12:59:40;;;;;;;55.00;5.70;;;;;;;;;;4995805;28;20036;-94
2022/12/23 13:02:26;;;;;;;13.77;3.42;;;;;;;;;;4993968;28;20026;-95
2022/12/23 13:05:10;;;;;;;23.58;4.13;;;;;;;;;;4993698;28;20034;-95
2022/12/23 13:07:54;;;;;;;75.13;7.47;;;;;;;;;;4979181;28;20039;-93
2022/12/23 13:10:42;;;;;;;70.22;6.90;;;;;;;;;;4961107;28;20026;-94
2022/12/23 13:13:16;;;;;;;59.60;5.50;;;;;;;;;;4996684;28;20022;-94
2022/12/23 13:15:55;;;;;;;23.83;4.10;;;;;;;;;;4986616;28;20026;-95
2022/12/23 13:18:42;;;;;;;;;;;;;;;;;;;;;
2022/12/23 13:21:21;;;;;;;10.07;3.45;;;;;;;;;;4981572;28;20039;-94
2022/12/23 13:24:07;;;;;;;9.82;3.55;;;;;;;;;;4985625;28;20525;-95
2022/12/23 13:26:37;;;;;;;6.57;2.20;;;;;;;;;;4984679;28;20078;-94
2022/12/23 13:29:09;;;;;;;7.57;2.33;;;;;;;;;;4972653;28;20033;-94
2022/12/23 13:31:47;;;;;;;8.70;3.03;;;;;;;;;;4981443;28;20486;-96
2022/12/23 13:34:13;;;;;;;8.73;2.63;;;;;;;;;;4964463;28;20035;-95
2022/12/23 13:36:50;;;;;;;8.02;3.25;;;;;;;;;;4972260;28;20363;-95
2022/12/23 13:39:40;;;;;;;9.32;2.78;;;;;;;;;;4967181;28;20490;-95
2022/12/23 13:42:08;;;;;;;8.55;3.30;;;;;;;;;;4965502;28;20077;-95
2022/12/23 13:44:34;;;;;;;79.20;9.25;;;;;;;;;;4961765;28;20018;-94
2022/12/23 13:46:59;;;;;;;266.65;21.17;;;;;;;;;;4986828;28;20034;-95
2022/12/23 13:49:44;;;;;;;24.10;4.20;;;;;;;;;;4958139;28;20038;-94
2022/12/23 13:52:24;;;;;;;68.57;7.03;;;;;;;;;;4972073;28;20141;-93
2022/12/23 13:54:50;;;;;;;88.07;8.98;;;;;;;;;;4990468;28;20038;-95
2022/12/23 13:57:22;;;;;;;89.55;8.65;;;;;;;;;;4975174;28;20038;-92
2022/12/23 14:00:27;;;;;;;126.30;11.05;;;;;;;;;;4972582;28;20026;-93
2022/12/23 14:03:04;;;;;;;87.07;9.35;;;;;;;;;;4943680;28;20031;-93
2022/12/23 14:05:37;;;;;;;152.95;11.32;;;;;;;;;;4969136;28;20050;-92
2022/12/23 14:10:54;;;;;;;306.92;21.60;;;;;;;;;;4975345;28;19913;-91
2022/12/23 14:13:35;;;;;;;198.18;13.60;;;;;;;;;;4959963;28;20027;-93
2022/12/23 14:16:15;;;;;;;90.38;9.07;;;;;;;;;;4964097;28;20030;-92
2022/12/23 14:18:46;;;;;;;137.65;11.23;;;;;;;;;;4964600;28;20137;-92
2022/12/23 14:21:39;;;;;;;114.75;8.55;;;;;;;;;;4984269;28;20030;-93
2022/12/23 14:24:27;;;;;;;306.63;19.33;;;;;;;;;;4905597;29;20613;-92
2022/12/23 14:27:16;;;;;;;247.68;16.65;;;;;;;;;;4902345;29;20824;-93
2022/12/23 14:29:57;;;;;;;209.52;13.57;;;;;;;;;;4904463;29;20044;-94
2022/12/23 14:33:15;;;;;;;214.57;18.60;;;;;;;;;;4917680;29;20187;-94
2022/12/23 14:35:48;;;;;;;280.08;20.65;;;;;;;;;;4911395;29;20039;-94
2022/12/23 14:38:14;;;;;;;298.90;22.27;;;;;;;;;;4920320;29;20135;-92
2022/12/23 14:40:47;;;;;;;276.63;19.05;;;;;;;;;;4903046;29;20130;-92
2022/12/23 14:43:15;;;;;;;;;;;;;;;;;;4923989;29;20698;-92
2022/12/23 14:45:44;;;;;;;227.85;14.93;;;;;;;;;;4917175;29;20404;-92
2022/12/23 14:48:28;;;;;;;207.82;14.25;;;;;;;;;;4904292;29;20050;-92
2022/12/23 14:51:22;;;;;;;207.00;14.70;;;;;;;;;;4914607;29;20028;-91
2022/12/23 14:53:51;;;;;;;271.02;22.17;;;;;;;;;;4921698;29;20532;-91
2022/12/23 14:56:20;;;;;;;49.75;6.38;;;;;;;;;;4925399;29;20071;-92
2022/12/23 14:59:06;;;;;;;66.32;7.05;;;;;;;;;;4910831;29;20027;-92
2022/12/23 15:01:43;;;;;;;29.08;5.00;;;;;;;;;;4935614;28;20039;-92
2022/12/23 15:04:27;;;;;;;107.50;8.82;;;;;;;;;;4964104;28;20066;-92
2022/12/23 15:06:54;;;;;;;459.85;40.55;;;;;;;;;;4980376;28;20045;-93
2022/12/23 15:09:26;;;;;;;773.50;56.92;;;;;;;;;;4979548;28;20120;-93
2022/12/23 15:11:53;;;;;;;214.57;15.55;;;;;;;;;;4986400;28;20029;-93
2022/12/23 15:14:25;;;;;;;117.22;8.93;;;;;;;;;;4990451;28;21177;-93
2022/12/23 15:16:51;;;;;;;163.63;10.80;;;;;;;;;;4989021;28;20025;-93
2022/12/23 15:19:26;;;;;;;93.20;10.52;;;;;;;;;;4989885;28;20041;-93
2022/12/23 15:22:10;;;;;;;131.57;9.95;;;;;;;;;;4989239;28;20734;-92